Time;durP1;ratioP1;P1;durP2;ratioP2;P2;SDS_P1;SDS_P2;PMS_P1;PMS_P2;Temp;Humidity;BMP_temperature;BMP_pressure;BME280_temperature;BME280_humidity;BME280_pressure;Samples;Min_cycle;Max_cycle;Signal;HPM_P1;HPM_P2
2023/04/11 00:00:15;;;;;;;87.63;46.97;;;7.60;99.90;;;;;;4995253;28;20726;-81
2023/04/11 00:02:42;;;;;;;101.50;52.88;;;7.40;99.90;;;;;;5006881;28;20205;-82
2023/04/11 00:05:09;;;;;;;74.13;43.03;;;7.40;99.90;;;;;;5000679;28;20214;-81
2023/04/11 00:07:36;;;;;;;69.30;39.30;;;7.40;99.90;;;;;;5002204;28;20721;-80
2023/04/11 00:10:05;;;;;;;76.68;43.08;;;7.50;99.90;;;;;;5012277;28;20208;-79
2023/04/11 00:12:33;;;;;;;68.32;44.38;;;7.40;99.90;;;;;;5007414;28;20206;-80
2023/04/11 00:14:59;;;;;;;74.40;44.15;;;7.30;99.90;;;;;;5006023;28;20217;-81
2023/04/11 00:17:30;;;;;;;98.53;52.33;;;7.30;99.90;;;;;;5011134;28;20237;-82
2023/04/11 00:20:00;;;;;;;91.15;47.10;;;7.30;99.90;;;;;;5006553;28;20225;-79
2023/04/11 00:22:27;;;;;;;85.10;48.15;;;7.30;99.90;;;;;;4999036;28;20272;-81
2023/04/11 00:24:54;;;;;;;76.43;42.00;;;7.30;99.90;;;;;;5013838;28;20205;-80
2023/04/11 00:27:21;;;;;;;67.95;43.03;;;7.30;99.90;;;;;;5009497;28;20214;-80
2023/04/11 00:29:49;;;;;;;71.13;41.33;;;7.30;99.90;;;;;;5006087;28;20257;-82
2023/04/11 00:32:15;;;;;;;74.32;42.20;;;7.20;99.90;;;;;;5000365;28;20209;-81
2023/04/11 00:34:42;;;;;;;73.70;45.33;;;7.20;99.90;;;;;;5009218;28;20248;-80
2023/04/11 00:37:09;;;;;;;105.25;49.17;;;7.10;99.90;;;;;;5005746;28;20256;-81
2023/04/11 00:39:37;;;;;;;100.18;53.55;;;7.20;99.90;;;;;;5009761;28;20201;-81
2023/04/11 00:42:07;;;;;;;82.53;45.95;;;7.10;99.90;;;;;;5001407;28;20217;-81
2023/04/11 00:44:35;;;;;;;92.75;52.22;;;7.10;99.90;;;;;;5000839;28;20263;-80
2023/04/11 00:47:05;;;;;;;87.53;49.83;;;7.10;99.90;;;;;;5014389;28;20397;-80
2023/04/11 00:49:33;;;;;;;84.88;48.75;;;7.00;99.90;;;;;;5018397;28;20215;-80
2023/04/11 00:52:00;;;;;;;100.72;52.15;;;7.00;99.90;;;;;;5023017;28;20177;-80
2023/04/11 00:54:30;;;;;;;61.33;39.72;;;7.10;99.90;;;;;;5018796;28;20213;-80
2023/04/11 00:57:02;;;;;;;65.15;40.05;;;7.10;99.90;;;;;;5030557;28;20265;-81
2023/04/11 00:59:31;;;;;;;78.65;43.15;;;7.10;99.90;;;;;;5008907;28;20572;-80
2023/04/11 01:01:58;;;;;;;96.50;49.92;;;7.00;99.90;;;;;;5005878;28;20201;-80
2023/04/11 01:04:25;;;;;;;92.20;51.03;;;7.10;99.90;;;;;;5013805;28;20255;-80
2023/04/11 01:07:02;;;;;;;88.15;45.78;;;7.10;99.90;;;;;;4999409;28;20213;-79
2023/04/11 01:09:32;;;;;;;78.57;45.97;;;6.90;99.90;;;;;;5007556;28;20209;-81
2023/04/11 01:12:01;;;;;;;84.78;45.88;;;6.90;99.90;;;;;;5001097;28;20254;-81
2023/04/11 01:14:29;;;;;;;107.05;51.78;;;6.90;99.90;;;;;;5015648;28;20251;-80
2023/04/11 01:16:57;;;;;;;87.80;48.38;;;6.90;99.90;;;;;;5002453;28;20240;-80
2023/04/11 01:19:25;;;;;;;69.10;41.50;;;6.90;99.90;;;;;;5009159;28;20209;-82
2023/04/11 01:21:54;;;;;;;73.82;42.22;;;7.00;99.90;;;;;;5014268;28;20209;-81
2023/04/11 01:24:22;;;;;;;54.97;34.53;;;6.90;99.90;;;;;;5001543;28;20525;-82
2023/04/11 01:26:49;;;;;;;62.63;38.55;;;6.80;99.90;;;;;;5008742;28;20220;-84
2023/04/11 01:29:16;;;;;;;58.28;38.42;;;6.70;99.90;;;;;;4996710;28;20238;-83
2023/04/11 01:31:44;;;;;;;57.70;39.05;;;6.90;99.90;;;;;;5011674;28;20216;-82
2023/04/11 01:34:13;;;;;;;58.92;39.85;;;6.60;99.90;;;;;;5010742;28;20217;-83
2023/04/11 01:36:41;;;;;;;84.05;47.63;;;6.50;99.90;;;;;;5007279;28;20233;-83
2023/04/11 01:39:08;;;;;;;72.40;41.42;;;6.60;99.90;;;;;;4998695;28;20225;-82
2023/04/11 01:41:36;;;;;;;66.60;42.10;;;6.50;99.90;;;;;;5008059;28;20400;-82
2023/04/11 01:44:04;;;;;;;64.30;41.03;;;6.60;99.90;;;;;;5010215;28;20229;-81
2023/04/11 01:46:31;;;;;;;74.63;45.38;;;6.50;99.90;;;;;;5009610;28;20213;-82
2023/04/11 01:49:00;;;;;;;85.82;47.95;;;6.50;99.90;;;;;;5008440;28;20197;-83
2023/04/11 01:51:27;;;;;;;73.10;46.08;;;6.40;99.90;;;;;;5006992;28;20209;-81
2023/04/11 01:53:54;;;;;;;96.78;53.85;;;6.50;99.90;;;;;;5011007;28;20490;-81
2023/04/11 01:56:21;;;;;;;68.72;42.35;;;6.40;99.90;;;;;;4995793;28;20234;-81
2023/04/11 01:58:48;;;;;;;66.63;41.47;;;6.50;99.90;;;;;;5011082;28;20197;-80
2023/04/11 02:01:19;;;;;;;78.78;45.47;;;6.40;99.90;;;;;;4998064;28;20257;-81
2023/04/11 02:03:45;;;;;;;76.30;46.28;;;6.40;99.90;;;;;;4992981;28;20246;-81
2023/04/11 02:06:14;;;;;;;70.32;43.88;;;6.40;99.90;;;;;;5009083;28;20215;-84
2023/04/11 02:08:42;;;;;;;89.97;46.67;;;6.40;99.90;;;;;;5001243;28;20268;-81
2023/04/11 02:11:09;;;;;;;75.15;44.03;;;6.30;99.90;;;;;;4998855;28;20194;-80
2023/04/11 02:13:37;;;;;;;72.47;42.13;;;6.30;99.90;;;;;;5005623;28;20211;-79
2023/04/11 02:16:06;;;;;;;56.58;38.13;;;6.30;99.90;;;;;;5003174;28;20231;-81
2023/04/11 02:18:33;;;;;;;65.28;41.38;;;6.40;99.90;;;;;;5006081;28;20422;-82
2023/04/11 02:21:00;;;;;;;74.60;44.53;;;6.40;99.90;;;;;;4998474;28;20212;-81
2023/04/11 02:23:27;;;;;;;71.75;42.20;;;6.40;99.90;;;;;;5000385;28;20719;-82
2023/04/11 02:25:54;;;;;;;65.05;41.92;;;6.40;99.90;;;;;;4998622;28;20215;-82
2023/04/11 02:28:21;;;;;;;61.90;35.65;;;6.30;99.90;;;;;;4998707;28;20205;-81
2023/04/11 02:30:49;;;;;;;61.60;38.38;;;6.40;99.90;;;;;;4999227;28;20252;-82
2023/04/11 02:33:18;;;;;;;78.07;44.40;;;6.30;99.90;;;;;;5006674;28;20220;-81
2023/04/11 02:35:45;;;;;;;82.82;45.20;;;6.30;99.90;;;;;;4989821;28;20215;-81
2023/04/11 02:38:13;;;;;;;68.07;41.03;;;6.20;99.90;;;;;;4999859;28;20284;-80
2023/04/11 02:40:40;;;;;;;67.05;36.38;;;6.30;99.90;;;;;;4999988;28;20208;-81
2023/04/11 02:43:07;;;;;;;65.95;38.75;;;6.30;99.90;;;;;;5012383;28;20509;-80
2023/04/11 02:45:34;;;;;;;82.72;45.85;;;6.20;99.90;;;;;;5004753;28;20233;-80
2023/04/11 02:48:01;;;;;;;63.50;39.55;;;6.20;99.90;;;;;;4997851;28;20217;-81
2023/04/11 02:50:28;;;;;;;51.63;35.33;;;6.10;99.90;;;;;;4997360;28;20274;-81
2023/04/11 02:52:55;;;;;;;55.42;35.20;;;6.20;99.90;;;;;;4997590;28;20233;-81
2023/04/11 02:55:23;;;;;;;60.45;36.70;;;6.20;99.90;;;;;;5003081;28;20217;-80
2023/04/11 02:57:50;;;;;;;53.30;35.65;;;6.10;99.90;;;;;;4990421;28;20232;-80
2023/04/11 03:00:19;;;;;;;62.75;36.22;;;6.20;99.90;;;;;;4999165;28;20217;-83
2023/04/11 03:02:45;;;;;;;54.33;34.38;;;6.10;99.90;;;;;;4995247;28;20205;-84
2023/04/11 03:05:14;;;;;;;60.92;36.08;;;6.10;99.90;;;;;;4997924;28;20208;-80
2023/04/11 03:07:42;;;;;;;62.17;38.15;;;6.20;99.90;;;;;;4997779;28;20205;-83
2023/04/11 03:10:09;;;;;;;61.92;36.38;;;6.00;99.90;;;;;;4998811;28;20393;-82
2023/04/11 03:12:36;;;;;;;56.35;36.00;;;6.00;99.90;;;;;;5000684;28;20223;-82
2023/04/11 03:15:04;;;;;;;61.67;36.00;;;6.10;99.90;;;;;;5007983;28;20213;-82
2023/04/11 03:17:31;;;;;;;55.47;35.83;;;6.10;99.90;;;;;;4998640;28;20237;-82
2023/04/11 03:19:58;;;;;;;55.95;33.75;;;6.10;99.90;;;;;;5008463;28;20206;-82
2023/04/11 03:22:25;;;;;;;52.95;35.67;;;6.20;99.90;;;;;;5014114;28;20209;-81
2023/04/11 03:24:52;;;;;;;58.17;36.10;;;6.00;99.90;;;;;;4998571;28;20205;-82
2023/04/11 03:27:21;;;;;;;56.63;37.80;;;6.00;99.90;;;;;;5007488;28;20223;-80
2023/04/11 03:29:50;;;;;;;55.20;37.00;;;6.00;99.90;;;;;;5014865;28;20205;-83
2023/04/11 03:32:17;;;;;;;64.82;38.22;;;6.00;99.90;;;;;;5020551;28;20217;-82
2023/04/11 03:34:44;;;;;;;62.05;37.38;;;6.00;99.90;;;;;;5006961;28;20193;-83
2023/04/11 03:37:11;;;;;;;63.25;39.63;;;6.00;99.90;;;;;;5001779;28;20241;-82
2023/04/11 03:39:39;;;;;;;56.42;37.25;;;6.10;99.90;;;;;;5009629;28;20209;-82
2023/04/11 03:42:06;;;;;;;69.30;39.90;;;6.10;99.90;;;;;;5002228;28;20260;-81
2023/04/11 03:44:35;;;;;;;60.17;38.88;;;6.10;99.90;;;;;;5010928;28;20220;-82
2023/04/11 03:47:02;;;;;;;65.60;37.88;;;6.10;99.90;;;;;;5015957;28;20205;-80
2023/04/11 03:49:29;;;;;;;54.95;36.85;;;6.10;99.90;;;;;;5013389;28;20229;-81
2023/04/11 03:51:56;;;;;;;60.25;37.67;;;6.10;99.90;;;;;;5009621;28;20217;-82
2023/04/11 03:54:23;;;;;;;55.00;35.65;;;6.00;99.90;;;;;;4997457;28;20285;-83
2023/04/11 03:56:50;;;;;;;55.97;34.92;;;6.00;99.90;;;;;;4992367;28;20226;-81
2023/04/11 03:59:20;;;;;;;55.75;39.70;;;6.00;99.90;;;;;;5005229;28;20209;-82
2023/04/11 04:01:48;;;;;;;53.78;36.28;;;6.00;99.90;;;;;;5013963;28;20209;-81
2023/04/11 04:04:18;;;;;;;60.72;39.03;;;6.00;99.90;;;;;;5006881;28;20213;-81
2023/04/11 04:06:44;;;;;;;67.85;38.38;;;6.30;99.90;;;;;;4999247;28;20209;-81
2023/04/11 04:09:12;;;;;;;59.35;37.30;;;6.20;99.90;;;;;;5013228;28;20209;-82
2023/04/11 04:11:39;;;;;;;52.13;33.38;;;6.30;99.90;;;;;;5006705;28;20679;-81
2023/04/11 04:14:06;;;;;;;55.28;34.50;;;6.30;99.90;;;;;;4998478;28;20217;-82
2023/04/11 04:16:32;;;;;;;57.75;36.53;;;6.30;99.90;;;;;;4993574;28;20223;-81
2023/04/11 04:19:01;;;;;;;51.38;36.30;;;6.50;99.90;;;;;;4996513;28;20217;-81
2023/04/11 04:21:31;;;;;;;60.28;37.28;;;6.50;99.90;;;;;;5006374;28;20221;-82
2023/04/11 04:24:02;;;;;;;54.20;36.85;;;6.50;99.90;;;;;;5013949;28;20281;-83
2023/04/11 04:26:30;;;;;;;53.33;39.13;;;6.50;99.90;;;;;;5010789;28;20287;-82
2023/04/11 04:29:05;;;;;;;59.92;36.58;;;6.60;99.90;;;;;;5012053;28;20612;-80
2023/04/11 04:31:32;;;;;;;55.25;36.15;;;6.70;99.90;;;;;;5009743;28;20255;-82
2023/04/11 04:34:07;;;;;;;53.72;33.75;;;6.60;99.90;;;;;;5001563;28;20669;-81
2023/04/11 04:36:45;;;;;;;55.45;35.70;;;6.70;99.90;;;;;;5010708;28;20254;-82
2023/04/11 04:39:16;;;;;;;55.08;35.45;;;6.60;99.90;;;;;;4998818;28;20216;-81
2023/04/11 04:41:44;;;;;;;53.28;33.65;;;6.60;99.90;;;;;;5003720;28;20209;-81
2023/04/11 04:44:11;;;;;;;47.75;34.40;;;6.60;99.90;;;;;;5008712;28;20402;-81
2023/04/11 04:46:38;;;;;;;61.55;33.25;;;6.60;99.90;;;;;;5006240;28;20205;-82
2023/04/11 04:49:06;;;;;;;52.13;34.67;;;6.70;99.90;;;;;;5007010;28;20270;-81
2023/04/11 04:51:35;;;;;;;56.10;35.00;;;6.70;99.90;;;;;;5004822;28;20514;-83
2023/04/11 04:54:03;;;;;;;53.10;34.50;;;6.70;99.90;;;;;;5006075;28;20457;-82
2023/04/11 04:56:30;;;;;;;54.28;33.85;;;6.80;99.90;;;;;;4994116;28;20257;-80
2023/04/11 04:58:58;;;;;;;50.10;32.63;;;6.80;99.90;;;;;;4998724;28;20221;-82
2023/04/11 05:01:25;;;;;;;50.22;30.00;;;6.90;99.90;;;;;;5001815;28;20501;-80
2023/04/11 05:03:59;;;;;;;46.13;32.97;;;6.90;99.90;;;;;;5002912;28;20201;-81
2023/04/11 05:06:30;;;;;;;49.88;31.30;;;6.80;99.90;;;;;;5000543;28;20209;-79
2023/04/11 05:08:59;;;;;;;48.90;30.42;;;6.90;99.90;;;;;;4995603;28;20577;-80
2023/04/11 05:11:27;;;;;;;49.55;32.13;;;7.10;99.90;;;;;;4998717;28;20206;-81
2023/04/11 05:13:54;;;;;;;42.30;28.52;;;7.00;99.90;;;;;;4996659;28;20205;-80
2023/04/11 05:16:22;;;;;;;46.40;29.70;;;7.10;99.90;;;;;;4986610;28;20217;-80
2023/04/11 05:18:49;;;;;;;42.83;30.30;;;7.50;99.90;;;;;;4997757;28;20205;-80
2023/04/11 05:21:15;;;;;;;45.63;30.02;;;7.20;99.90;;;;;;4995214;28;20214;-80
2023/04/11 05:23:44;;;;;;;50.30;30.77;;;7.20;99.90;;;;;;4995286;28;20269;-81
2023/04/11 05:26:11;;;;;;;51.00;30.90;;;7.20;99.90;;;;;;5007457;28;20232;-81
2023/04/11 05:28:38;;;;;;;48.90;32.70;;;7.20;99.90;;;;;;5005545;28;20197;-80
2023/04/11 05:31:07;;;;;;;52.63;33.85;;;7.10;99.90;;;;;;5010157;28;20515;-81
2023/04/11 05:33:37;;;;;;;52.67;32.17;;;7.10;99.90;;;;;;5019943;28;20205;-82
2023/04/11 05:36:05;;;;;;;48.53;31.67;;;7.20;99.90;;;;;;5007017;28;20224;-80
2023/04/11 05:38:32;;;;;;;45.42;31.63;;;7.10;99.90;;;;;;5012875;28;20258;-80
2023/04/11 05:40:59;;;;;;;49.10;29.58;;;7.00;99.90;;;;;;5003920;28;20217;-79
2023/04/11 05:43:26;;;;;;;43.17;29.45;;;7.30;99.90;;;;;;5008887;28;20201;-79
2023/04/11 05:45:53;;;;;;;42.13;28.67;;;7.40;99.90;;;;;;4999944;28;20304;-80
2023/04/11 05:48:21;;;;;;;43.00;26.83;;;7.40;99.90;;;;;;5000519;28;20521;-78
2023/04/11 05:50:49;;;;;;;40.42;25.50;;;7.20;99.90;;;;;;5003790;28;20250;-78
2023/04/11 05:53:16;;;;;;;42.50;28.02;;;7.30;99.90;;;;;;5012072;28;20204;-78
2023/04/11 05:55:44;;;;;;;49.70;28.23;;;7.30;99.90;;;;;;4993320;28;20491;-79
2023/04/11 05:58:10;;;;;;;45.03;28.42;;;7.20;99.90;;;;;;5004898;28;20421;-80
2023/04/11 06:00:38;;;;;;;43.95;27.23;;;7.40;99.90;;;;;;5012326;28;20216;-78
2023/04/11 06:03:09;;;;;;;40.88;26.92;;;7.50;99.90;;;;;;5005712;28;20261;-79
2023/04/11 06:05:36;;;;;;;38.90;26.65;;;7.50;99.90;;;;;;4996520;28;20201;-80
2023/04/11 06:08:05;;;;;;;46.17;27.42;;;7.40;99.90;;;;;;5000421;28;20248;-80
2023/04/11 06:10:33;;;;;;;39.53;25.65;;;7.50;99.90;;;;;;5010596;28;20212;-83
2023/04/11 06:13:00;;;;;;;43.05;25.65;;;7.60;99.90;;;;;;5001256;28;20583;-80
2023/04/11 06:15:28;;;;;;;37.72;25.08;;;7.70;99.90;;;;;;5004581;28;20232;-79
2023/04/11 06:17:55;;;;;;;37.45;24.17;;;7.70;99.90;;;;;;5007003;28;20240;-80
2023/04/11 06:20:23;;;;;;;41.15;26.92;;;7.70;99.90;;;;;;4997159;28;20292;-80
2023/04/11 06:22:50;;;;;;;37.08;25.63;;;7.70;99.90;;;;;;5002169;28;20213;-81
2023/04/11 06:25:19;;;;;;;38.22;25.52;;;7.80;99.90;;;;;;4998117;28;20558;-81
2023/04/11 06:27:46;;;;;;;38.33;23.50;;;7.80;99.90;;;;;;5005505;28;20448;-81
2023/04/11 06:30:14;;;;;;;39.35;25.55;;;8.00;99.90;;;;;;5003343;28;20213;-81
2023/04/11 06:32:41;;;;;;;36.90;24.67;;;8.10;99.90;;;;;;5009333;28;20275;-81
2023/04/11 06:35:08;;;;;;;38.58;24.13;;;8.20;99.90;;;;;;4999888;28;20426;-81
2023/04/11 06:37:35;;;;;;;37.88;24.92;;;8.20;99.90;;;;;;4999908;28;20325;-80
2023/04/11 06:40:04;;;;;;;38.88;23.98;;;8.20;99.90;;;;;;5001772;28;20251;-80
2023/04/11 06:42:31;;;;;;;32.97;22.80;;;8.20;99.90;;;;;;5003286;28;20228;-82
2023/04/11 06:45:00;;;;;;;38.58;22.55;;;8.10;99.90;;;;;;5008406;28;20212;-80
2023/04/11 06:47:27;;;;;;;34.78;23.38;;;8.20;99.90;;;;;;5001177;28;20214;-80
2023/04/11 06:49:54;;;;;;;35.67;22.58;;;8.30;99.90;;;;;;5001528;28;20235;-81
2023/04/11 06:52:21;;;;;;;36.30;23.70;;;8.30;99.90;;;;;;5001289;28;20210;-81
2023/04/11 06:54:48;;;;;;;35.05;24.02;;;8.40;99.90;;;;;;4989586;28;20214;-80
2023/04/11 06:57:16;;;;;;;33.28;23.40;;;8.40;99.90;;;;;;5000742;28;20236;-81
2023/04/11 06:59:43;;;;;;;43.90;24.10;;;8.50;99.90;;;;;;5005701;28;20221;-81
2023/04/11 07:02:10;;;;;;;36.10;22.63;;;8.60;99.90;;;;;;4996555;28;20208;-81
2023/04/11 07:04:37;;;;;;;34.53;23.48;;;8.60;99.90;;;;;;5004488;28;20277;-82
2023/04/11 07:07:05;;;;;;;38.03;23.13;;;8.70;99.90;;;;;;5014010;28;20203;-81
2023/04/11 07:09:32;;;;;;;36.25;22.25;;;8.70;99.90;;;;;;5003227;28;20201;-83
2023/04/11 07:12:00;;;;;;;33.13;21.98;;;8.60;99.90;;;;;;5013631;28;20205;-83
2023/04/11 07:14:27;;;;;;;37.10;21.77;;;8.80;99.90;;;;;;5007185;28;20206;-82
2023/04/11 07:16:54;;;;;;;33.25;22.42;;;8.80;99.90;;;;;;5012038;28;20264;-81
2023/04/11 07:19:20;;;;;;;34.92;23.52;;;8.70;99.90;;;;;;5007833;28;20217;-82
2023/04/11 07:21:48;;;;;;;37.45;23.33;;;8.80;99.90;;;;;;5013986;28;20211;-82
2023/04/11 07:24:17;;;;;;;41.72;26.33;;;8.80;99.90;;;;;;5023151;28;20197;-82
2023/04/11 07:26:45;;;;;;;33.08;20.58;;;8.90;99.90;;;;;;5010301;28;20202;-81
2023/04/11 07:29:12;;;;;;;36.25;23.50;;;9.10;99.90;;;;;;5002121;28;20217;-81
2023/04/11 07:31:40;;;;;;;38.50;24.23;;;9.40;99.90;;;;;;5003821;28;20405;-81
2023/04/11 07:34:07;;;;;;;33.95;22.02;;;9.50;99.90;;;;;;5012617;28;20231;-83
2023/04/11 07:36:35;;;;;;;27.85;19.88;;;9.50;99.90;;;;;;5011350;28;20209;-83
2023/04/11 07:39:03;;;;;;;27.33;21.02;;;9.50;99.90;;;;;;4993275;28;20240;-81
2023/04/11 07:41:30;;;;;;;33.83;22.50;;;9.60;99.90;;;;;;5001582;28;20382;-82
2023/04/11 07:43:57;;;;;;;36.58;23.80;;;9.70;99.90;;;;;;5002346;28;20217;-82
2023/04/11 07:46:24;;;;;;;46.15;25.30;;;9.60;99.90;;;;;;5006396;28;20248;-82
2023/04/11 07:48:51;;;;;;;31.40;22.77;;;9.70;99.90;;;;;;5005708;28;20222;-82
2023/04/11 07:51:17;;;;;;;36.40;22.35;;;9.70;99.90;;;;;;5013415;28;20254;-80
2023/04/11 07:53:44;;;;;;;37.05;24.40;;;9.60;99.90;;;;;;4997690;28;20572;-81
2023/04/11 07:56:13;;;;;;;30.25;21.83;;;9.70;99.90;;;;;;5002812;28;20199;-82
2023/04/11 07:58:40;;;;;;;29.27;20.00;;;9.80;99.90;;;;;;5003571;28;20237;-81
2023/04/11 08:01:19;;;;;;;35.15;24.15;;;9.90;99.90;;;;;;5014032;28;20222;-80
2023/04/11 08:03:46;;;;;;;32.83;22.80;;;10.00;99.90;;;;;;5000724;28;20481;-81
2023/04/11 08:06:14;;;;;;;27.77;22.23;;;10.20;99.90;;;;;;5005818;28;20232;-82
2023/04/11 08:08:41;;;;;;;28.90;20.35;;;10.60;99.90;;;;;;5002578;28;20209;-82
2023/04/11 08:11:08;;;;;;;33.55;22.52;;;10.90;99.90;;;;;;5004086;28;20442;-81
2023/04/11 08:13:35;;;;;;;36.38;23.88;;;11.00;99.90;;;;;;5002654;28;20206;-81
2023/04/11 08:16:08;;;;;;;27.98;21.00;;;10.90;99.90;;;;;;5007606;28;20234;-81
2023/04/11 08:18:40;;;;;;;26.48;19.17;;;10.90;99.90;;;;;;4998093;28;20585;-80
2023/04/11 08:21:10;;;;;;;32.80;21.35;;;11.00;99.90;;;;;;4994136;28;20446;-84
2023/04/11 08:23:38;;;;;;;32.15;21.85;;;11.10;99.90;;;;;;5000771;28;20443;-81
2023/04/11 08:26:07;;;;;;;28.70;20.23;;;11.30;99.90;;;;;;4992428;28;20222;-81
2023/04/11 08:28:34;;;;;;;30.98;20.75;;;11.40;99.90;;;;;;5007919;28;20702;-82
2023/04/11 08:31:03;;;;;;;29.90;22.23;;;11.40;99.90;;;;;;5006601;28;20517;-81
2023/04/11 08:33:31;;;;;;;28.50;20.35;;;11.50;99.90;;;;;;5013123;28;20219;-81
2023/04/11 08:35:59;;;;;;;27.50;20.08;;;11.70;99.90;;;;;;5001704;28;20439;-80
2023/04/11 08:38:26;;;;;;;25.58;20.48;;;11.70;99.90;;;;;;5006171;28;20557;-80
2023/04/11 08:40:54;;;;;;;30.13;19.85;;;11.90;99.90;;;;;;4990139;28;20402;-81
2023/04/11 08:43:21;;;;;;;29.83;21.40;;;12.00;99.90;;;;;;4996950;28;20210;-81
2023/04/11 08:45:48;;;;;;;28.77;20.55;;;12.30;99.90;;;;;;5006228;28;20271;-81
2023/04/11 08:48:15;;;;;;;39.22;23.08;;;12.70;99.90;;;;;;5005025;28;20204;-81
2023/04/11 08:50:43;;;;;;;31.88;21.45;;;12.70;99.90;;;;;;5011171;28;20253;-82
2023/04/11 08:53:10;;;;;;;31.92;22.75;;;12.70;99.90;;;;;;5008599;28;20211;-83
2023/04/11 08:55:45;;;;;;;27.25;21.25;;;12.80;99.90;;;;;;5007087;28;20244;-82
2023/04/11 08:58:13;;;;;;;30.98;20.60;;;13.00;99.90;;;;;;4993129;28;20284;-81
2023/04/11 09:00:40;;;;;;;34.88;23.33;;;12.90;99.90;;;;;;5000689;28;20251;-80
2023/04/11 09:03:08;;;;;;;29.73;20.90;;;13.00;99.90;;;;;;5002667;28;20237;-82
2023/04/11 09:05:37;;;;;;;34.63;22.90;;;13.20;99.90;;;;;;4988461;28;20207;-82
2023/04/11 09:08:09;;;;;;;33.05;19.55;;;13.20;99.90;;;;;;5007540;28;20515;-81
2023/04/11 09:10:41;;;;;;;29.85;19.30;;;13.60;99.90;;;;;;5003476;28;20550;-82
2023/04/11 09:13:35;;;;;;;29.35;22.02;;;14.20;99.90;;;;;;4993333;28;20510;-82
2023/04/11 09:16:13;;;;;;;33.55;21.20;;;14.40;99.90;;;;;;5002087;28;20220;-81
2023/04/11 09:18:43;;;;;;;34.08;20.80;;;14.60;99.90;;;;;;5006839;28;20556;-80
2023/04/11 09:21:13;;;;;;;28.33;18.85;;;15.10;99.90;;;;;;4988534;28;20422;-80
2023/04/11 09:23:40;;;;;;;25.58;16.85;;;15.70;99.90;;;;;;5002411;28;20216;-81
2023/04/11 09:26:11;;;;;;;26.37;17.70;;;15.50;99.90;;;;;;4992089;28;20256;-82
2023/04/11 09:28:43;;;;;;;27.23;18.57;;;15.10;99.90;;;;;;5009755;28;20494;-81
2023/04/11 09:31:11;;;;;;;24.55;18.30;;;15.00;99.90;;;;;;5000572;28;20426;-82
2023/04/11 09:33:55;;;;;;;25.97;19.47;;;15.30;99.90;;;;;;5008439;28;20592;-81
2023/04/11 09:36:24;;;;;;;20.70;16.10;;;15.20;99.90;;;;;;4995076;28;20450;-81
2023/04/11 09:38:51;;;;;;;21.17;17.03;;;15.10;99.90;;;;;;4995997;28;20490;-80
2023/04/11 09:41:32;;;;;;;68.33;37.47;;;15.30;99.90;;;;;;4998798;28;20477;-82
2023/04/11 09:43:59;;;;;;;41.43;23.30;;;15.40;99.90;;;;;;5003464;28;20448;-81
2023/04/11 09:46:27;;;;;;;27.97;19.73;;;15.50;99.90;;;;;;5003890;28;20759;-81
2023/04/11 09:48:55;;;;;;;21.73;15.77;;;15.80;99.90;;;;;;5004442;28;20475;-79
2023/04/11 09:51:22;;;;;;;22.80;16.90;;;16.10;99.90;;;;;;5009521;28;20499;-81
2023/04/11 09:54:02;;;;;;;25.67;18.10;;;16.20;99.90;;;;;;4996136;28;20431;-80
2023/04/11 09:56:32;;;;;;;20.60;16.50;;;16.30;99.90;;;;;;4998631;28;20464;-81
2023/04/11 09:59:02;;;;;;;22.17;15.93;;;16.70;99.90;;;;;;5010519;28;20486;-82
2023/04/11 10:01:31;;;;;;;24.53;16.03;;;16.90;99.90;;;;;;5006883;28;20443;-81
2023/04/11 10:03:59;;;;;;;20.00;16.53;;;17.00;99.90;;;;;;4998043;28;20421;-81
2023/04/11 10:06:32;;;;;;;16.53;14.17;;;17.10;99.90;;;;;;5001621;28;20526;-82
2023/04/11 10:09:11;;;;;;;15.03;11.93;;;17.40;99.90;;;;;;5030476;28;20427;-81
2023/04/11 10:11:42;;;;;;;16.30;11.93;;;17.40;99.90;;;;;;5023243;28;20517;-84
2023/04/11 10:14:37;;;;;;;21.23;14.80;;;17.50;99.90;;;;;;5013060;28;20420;-81
2023/04/11 10:17:16;;;;;;;22.00;14.53;;;17.60;99.90;;;;;;5006145;28;20440;-81
2023/04/11 10:19:50;;;;;;;16.83;11.77;;;17.60;99.90;;;;;;4994324;28;20690;-79
2023/04/11 10:22:39;;;;;;;16.27;11.87;;;17.30;99.90;;;;;;5005503;28;20442;-82
2023/04/11 10:25:46;;;;;;;25.93;13.17;;;17.00;99.90;;;;;;5006514;28;20445;-80
2023/04/11 10:28:37;;;;;;;18.80;13.47;;;17.00;99.90;;;;;;5002194;28;20513;-81
2023/04/11 10:31:06;;;;;;;21.53;13.13;;;16.90;99.90;;;;;;5003729;28;20436;-81
2023/04/11 10:33:34;;;;;;;17.83;13.53;;;16.80;99.90;;;;;;5007641;28;20443;-81
2023/04/11 10:36:11;;;;;;;18.33;12.80;;;16.80;99.90;;;;;;4998779;28;20450;-80
2023/04/11 10:38:47;;;;;;;14.37;12.87;;;16.60;99.90;;;;;;5006898;28;20528;-82
2023/04/11 10:41:32;;;;;;;14.33;11.73;;;16.80;99.90;;;;;;5007833;28;20428;-80
2023/04/11 10:44:23;;;;;;;17.33;13.37;;;16.80;99.90;;;;;;5009286;28;20462;-81
2023/04/11 10:46:55;;;;;;;17.57;12.80;;;16.80;99.90;;;;;;4989899;28;20632;-80
2023/04/11 10:49:36;;;;;;;17.47;12.27;;;16.60;99.90;;;;;;4999071;28;20443;-81
2023/04/11 10:52:17;;;;;;;14.50;11.93;;;16.60;99.90;;;;;;5007022;28;20453;-81
2023/04/11 10:54:45;;;;;;;12.40;10.83;;;16.50;99.90;;;;;;5002655;28;20444;-82
2023/04/11 10:57:12;;;;;;;17.80;10.13;;;16.40;99.90;;;;;;4999343;28;20432;-80
2023/04/11 10:59:49;;;;;;;11.87;8.70;;;16.10;99.90;;;;;;5002301;28;20461;-83
2023/04/11 11:02:18;;;;;;;12.20;9.93;;;15.70;99.90;;;;;;4994934;28;20413;-80
2023/04/11 11:04:45;;;;;;;15.47;11.13;;;15.50;99.90;;;;;;5001601;28;20496;-81
2023/04/11 11:07:17;;;;;;;11.83;9.77;;;15.20;99.90;;;;;;4995817;28;20464;-81
2023/04/11 11:09:49;;;;;;;11.70;9.60;;;15.30;99.90;;;;;;4998820;28;20504;-82
2023/04/11 11:12:17;;;;;;;15.43;12.00;;;15.10;99.90;;;;;;4996997;28;20462;-82
2023/04/11 11:14:46;;;;;;;14.53;10.70;;;14.70;99.90;;;;;;5006987;28;20447;-80
2023/04/11 11:17:16;;;;;;;14.23;11.48;;;14.40;99.90;;;;;;5005573;28;20462;-80
2023/04/11 11:19:46;;;;;;;15.65;12.23;;;13.90;99.90;;;;;;5003342;28;20232;-81
2023/04/11 11:22:15;;;;;;;19.70;12.75;;;13.40;99.90;;;;;;4996406;28;20233;-82
2023/04/11 11:24:42;;;;;;;17.58;13.73;;;12.90;99.90;;;;;;5002341;28;20513;-81
2023/04/11 11:27:22;;;;;;;15.70;11.85;;;12.60;99.90;;;;;;5004858;28;20217;-81
2023/04/11 11:29:50;;;;;;;12.65;10.93;;;12.00;99.90;;;;;;5001302;28;20201;-81
2023/04/11 11:32:27;;;;;;;16.58;9.65;;;11.60;99.90;;;;;;5003144;28;20212;-81
2023/04/11 11:34:56;;;;;;;7.57;6.82;;;11.30;99.90;;;;;;5007633;28;20199;-82
2023/04/11 11:37:23;;;;;;;8.52;7.10;;;10.90;99.90;;;;;;5006343;28;20250;-80
2023/04/11 11:39:51;;;;;;;9.52;7.18;;;10.80;99.90;;;;;;5000261;28;20599;-83
2023/04/11 11:42:18;;;;;;;9.82;6.05;;;10.70;99.90;;;;;;5000424;28;20488;-81
2023/04/11 11:44:45;;;;;;;6.75;5.20;;;10.50;99.90;;;;;;5003641;28;20207;-81
2023/04/11 11:47:15;;;;;;;7.30;4.93;;;10.20;99.90;;;;;;5010251;28;20545;-83
2023/04/11 11:49:44;;;;;;;8.10;5.30;;;10.00;99.90;;;;;;5005841;28;20202;-82
2023/04/11 11:52:11;;;;;;;6.95;4.22;;;9.90;99.90;;;;;;5003501;28;20219;-83
2023/04/11 11:54:46;;;;;;;4.88;4.47;;;9.70;99.90;;;;;;5017972;28;20205;-81
2023/04/11 11:57:23;;;;;;;4.55;4.10;;;9.80;99.90;;;;;;5015934;28;20206;-82
2023/04/11 11:59:55;;;;;;;6.28;4.22;;;9.70;99.90;;;;;;5010624;28;20230;-82
2023/04/11 12:02:24;;;;;;;4.68;3.88;;;9.60;99.90;;;;;;4997041;28;20205;-81
2023/04/11 12:04:58;;;;;;;5.85;4.45;;;9.50;99.90;;;;;;5006534;28;20494;-81
2023/04/11 12:07:31;;;;;;;6.85;4.05;;;9.40;99.90;;;;;;5011808;28;20271;-80
2023/04/11 12:10:05;;;;;;;5.95;4.90;;;9.40;99.90;;;;;;5009839;28;20514;-82
2023/04/11 12:12:36;;;;;;;5.10;4.57;;;9.30;99.90;;;;;;5009358;28;20216;-82
2023/04/11 12:15:17;;;;;;;6.05;3.83;;;9.30;99.90;;;;;;5006079;28;20214;-84
2023/04/11 12:17:49;;;;;;;3.95;3.50;;;9.30;99.90;;;;;;5000787;28;20285;-85
2023/04/11 12:20:26;;;;;;;6.80;4.05;;;9.20;99.90;;;;;;4994075;28;20450;-83
2023/04/11 12:22:53;;;;;;;4.45;4.00;;;9.10;99.90;;;;;;4996795;28;20197;-81
2023/04/11 12:25:21;;;;;;;4.07;3.60;;;9.00;99.90;;;;;;4997206;28;20208;-82
2023/04/11 12:27:48;;;;;;;7.72;3.90;;;9.00;99.90;;;;;;5014446;28;20219;-81
2023/04/11 12:30:15;;;;;;;4.15;3.65;;;9.00;99.90;;;;;;5001033;28;20244;-82
2023/04/11 12:32:43;;;;;;;5.95;4.80;;;9.00;99.90;;;;;;4999755;28;20596;-81
2023/04/11 12:35:11;;;;;;;8.13;5.43;;;9.00;99.90;;;;;;5000564;28;20244;-83
2023/04/11 12:37:38;;;;;;;5.22;4.30;;;9.10;99.90;;;;;;5002848;28;20217;-82
2023/04/11 12:40:14;;;;;;;6.95;5.47;;;9.00;99.90;;;;;;5005652;28;20502;-85
2023/04/11 12:42:42;;;;;;;5.75;4.30;;;9.00;99.90;;;;;;5000718;28;20192;-81
2023/04/11 12:45:22;;;;;;;5.35;3.80;;;9.00;99.90;;;;;;5008063;28;20197;-82